sensor_id;sensor_type;location;lat;lon;timestamp;temperature;humidity
29687;DHT22;16599;47.078;15.536;2023-03-01T00:01:10;-1.10;99.90
29687;DHT22;16599;47.078;15.536;2023-03-01T00:03:37;-1.10;99.90
29687;DHT22;16599;47.078;15.536;2023-03-01T00:06:05;-1.00;99.90
29687;DHT22;16599;47.078;15.536;2023-03-01T00:08:32;-0.90;99.90
29687;DHT22;16599;47.078;15.536;2023-03-01T00:11:03;-1.00;99.90
29687;DHT22;16599;47.078;15.536;2023-03-01T00:13:31;-0.90;99.90
29687;DHT22;16599;47.078;15.536;2023-03-01T00:15:58;-0.80;99.90
29687;DHT22;16599;47.078;15.536;2023-03-01T00:18:24;-0.80;99.90
29687;DHT22;16599;47.078;15.536;2023-03-01T00:20:55;-0.80;99.90
29687;DHT22;16599;47.078;15.536;2023-03-01T00:23:22;-0.70;99.90
29687;DHT22;16599;47.078;15.536;2023-03-01T00:25:49;-0.70;99.90
29687;DHT22;16599;47.078;15.536;2023-03-01T00:28:16;-0.60;99.90
29687;DHT22;16599;47.078;15.536;2023-03-01T00:30:42;-0.40;99.90
29687;DHT22;16599;47.078;15.536;2023-03-01T00:33:09;-0.50;99.90
29687;DHT22;16599;47.078;15.536;2023-03-01T00:35:36;-0.60;99.90
29687;DHT22;16599;47.078;15.536;2023-03-01T00:38:03;-0.50;99.90
29687;DHT22;16599;47.078;15.536;2023-03-01T00:40:31;-0.40;99.90
29687;DHT22;16599;47.078;15.536;2023-03-01T00:42:59;-0.40;99.90
29687;DHT22;16599;47.078;15.536;2023-03-01T00:45:26;-0.60;99.90
29687;DHT22;16599;47.078;15.536;2023-03-01T00:47:53;-0.50;99.90
29687;DHT22;16599;47.078;15.536;2023-03-01T00:50:20;-0.50;99.90
29687;DHT22;16599;47.078;15.536;2023-03-01T00:52:51;-0.60;99.90
29687;DHT22;16599;47.078;15.536;2023-03-01T00:55:18;-0.60;99.90
29687;DHT22;16599;47.078;15.536;2023-03-01T00:57:44;-0.50;99.90
29687;DHT22;16599;47.078;15.536;2023-03-01T01:00:11;-0.40;99.90
29687;DHT22;16599;47.078;15.536;2023-03-01T01:02:38;-0.40;99.90
29687;DHT22;16599;47.078;15.536;2023-03-01T01:05:05;-0.50;99.90
29687;DHT22;16599;47.078;15.536;2023-03-01T01:07:32;-0.60;99.90
29687;DHT22;16599;47.078;15.536;2023-03-01T01:09:59;-0.50;99.90
29687;DHT22;16599;47.078;15.536;2023-03-01T01:12:25;-0.40;99.90
29687;DHT22;16599;47.078;15.536;2023-03-01T01:14:52;-0.30;99.90
29687;DHT22;16599;47.078;15.536;2023-03-01T01:17:19;-0.30;99.90
29687;DHT22;16599;47.078;15.536;2023-03-01T01:19:46;-0.30;99.90
29687;DHT22;16599;47.078;15.536;2023-03-01T01:22:12;-0.30;99.90
29687;DHT22;16599;47.078;15.536;2023-03-01T01:24:39;-0.30;99.90
29687;DHT22;16599;47.078;15.536;2023-03-01T01:27:05;-0.40;99.90
29687;DHT22;16599;47.078;15.536;2023-03-01T01:29:33;-0.40;99.90
29687;DHT22;16599;47.078;15.536;2023-03-01T01:32:00;-0.30;99.90
29687;DHT22;16599;47.078;15.536;2023-03-01T01:34:27;-0.20;99.90
29687;DHT22;16599;47.078;15.536;2023-03-01T01:36:53;-0.10;99.90
29687;DHT22;16599;47.078;15.536;2023-03-01T01:39:20;-0.10;99.90
29687;DHT22;16599;47.078;15.536;2023-03-01T01:41:47;-0.10;99.90
29687;DHT22;16599;47.078;15.536;2023-03-01T01:44:22;-0.10;99.90
29687;DHT22;16599;47.078;15.536;2023-03-01T01:46:54;-0.10;99.90
29687;DHT22;16599;47.078;15.536;2023-03-01T01:49:31;-0.10;99.90
29687;DHT22;16599;47.078;15.536;2023-03-01T01:54:29;0.00;99.90
29687;DHT22;16599;47.078;15.536;2023-03-01T01:56:59;-0.10;99.90
29687;DHT22;16599;47.078;15.536;2023-03-01T01:59:26;-0.10;99.90
29687;DHT22;16599;47.078;15.536;2023-03-01T02:01:54;0.00;99.90
29687;DHT22;16599;47.078;15.536;2023-03-01T02:04:21;0.00;99.90
29687;DHT22;16599;47.078;15.536;2023-03-01T02:06:54;0.00;99.90
29687;DHT22;16599;47.078;15.536;2023-03-01T02:09:22;0.00;99.90
29687;DHT22;16599;47.078;15.536;2023-03-01T02:11:50;0.10;99.90
29687;DHT22;16599;47.078;15.536;2023-03-01T02:14:17;0.00;99.90
29687;DHT22;16599;47.078;15.536;2023-03-01T02:16:44;0.00;99.90
29687;DHT22;16599;47.078;15.536;2023-03-01T02:19:18;0.10;99.90
29687;DHT22;16599;47.078;15.536;2023-03-01T02:21:55;0.10;99.90
29687;DHT22;16599;47.078;15.536;2023-03-01T02:27:04;0.20;99.90
29687;DHT22;16599;47.078;15.536;2023-03-01T02:29:31;0.20;99.90
29687;DHT22;16599;47.078;15.536;2023-03-01T02:31:59;0.20;99.90
29687;DHT22;16599;47.078;15.536;2023-03-01T02:34:26;0.20;99.90
29687;DHT22;16599;47.078;15.536;2023-03-01T02:36:54;0.20;99.90
29687;DHT22;16599;47.078;15.536;2023-03-01T02:39:22;0.30;99.90
29687;DHT22;16599;47.078;15.536;2023-03-01T02:41:51;0.30;99.90
29687;DHT22;16599;47.078;15.536;2023-03-01T02:44:18;0.30;99.90
29687;DHT22;16599;47.078;15.536;2023-03-01T02:46:46;0.30;99.90
29687;DHT22;16599;47.078;15.536;2023-03-01T02:49:20;0.30;99.90
29687;DHT22;16599;47.078;15.536;2023-03-01T02:52:01;0.20;99.90
29687;DHT22;16599;47.078;15.536;2023-03-01T02:54:33;0.30;99.90
29687;DHT22;16599;47.078;15.536;2023-03-01T02:57:00;0.30;99.90
29687;DHT22;16599;47.078;15.536;2023-03-01T02:59:29;0.30;99.90
29687;DHT22;16599;47.078;15.536;2023-03-01T03:01:56;0.20;99.90
29687;DHT22;16599;47.078;15.536;2023-03-01T03:04:23;0.20;99.90
29687;DHT22;16599;47.078;15.536;2023-03-01T03:06:50;0.20;99.90
29687;DHT22;16599;47.078;15.536;2023-03-01T03:09:17;0.20;99.90
29687;DHT22;16599;47.078;15.536;2023-03-01T03:11:44;0.20;99.90
29687;DHT22;16599;47.078;15.536;2023-03-01T03:14:11;0.30;99.90
29687;DHT22;16599;47.078;15.536;2023-03-01T03:16:42;0.30;99.90
29687;DHT22;16599;47.078;15.536;2023-03-01T03:19:09;0.30;99.90
29687;DHT22;16599;47.078;15.536;2023-03-01T03:21:36;0.30;99.90
29687;DHT22;16599;47.078;15.536;2023-03-01T03:24:03;0.20;99.90
29687;DHT22;16599;47.078;15.536;2023-03-01T03:26:29;0.20;99.90
29687;DHT22;16599;47.078;15.536;2023-03-01T03:28:57;0.30;99.90
29687;DHT22;16599;47.078;15.536;2023-03-01T03:31:23;0.40;99.90
29687;DHT22;16599;47.078;15.536;2023-03-01T03:33:50;0.40;99.90
29687;DHT22;16599;47.078;15.536;2023-03-01T03:36:18;0.40;99.90
29687;DHT22;16599;47.078;15.536;2023-03-01T03:38:45;0.10;99.90
29687;DHT22;16599;47.078;15.536;2023-03-01T03:41:12;0.10;99.90
29687;DHT22;16599;47.078;15.536;2023-03-01T03:43:39;0.10;99.90
29687;DHT22;16599;47.078;15.536;2023-03-01T03:46:06;0.20;99.90
29687;DHT22;16599;47.078;15.536;2023-03-01T03:48:34;0.20;99.90
29687;DHT22;16599;47.078;15.536;2023-03-01T03:51:01;0.20;99.90
29687;DHT22;16599;47.078;15.536;2023-03-01T03:53:28;0.30;99.90
29687;DHT22;16599;47.078;15.536;2023-03-01T03:55:55;0.30;99.90
29687;DHT22;16599;47.078;15.536;2023-03-01T03:58:22;0.40;99.90
29687;DHT22;16599;47.078;15.536;2023-03-01T04:00:51;0.50;99.90
29687;DHT22;16599;47.078;15.536;2023-03-01T04:03:18;0.50;99.90
29687;DHT22;16599;47.078;15.536;2023-03-01T04:05:46;0.50;99.90
29687;DHT22;16599;47.078;15.536;2023-03-01T04:08:13;0.50;99.90
29687;DHT22;16599;47.078;15.536;2023-03-01T04:10:41;0.50;99.90
29687;DHT22;16599;47.078;15.536;2023-03-01T04:13:09;0.50;99.90
29687;DHT22;16599;47.078;15.536;2023-03-01T04:15:37;0.40;99.90
29687;DHT22;16599;47.078;15.536;2023-03-01T04:18:04;0.30;99.90
29687;DHT22;16599;47.078;15.536;2023-03-01T04:20:32;0.30;99.90
29687;DHT22;16599;47.078;15.536;2023-03-01T04:25:53;0.30;99.90
29687;DHT22;16599;47.078;15.536;2023-03-01T04:28:21;0.40;99.90
29687;DHT22;16599;47.078;15.536;2023-03-01T04:30:48;0.40;99.90
29687;DHT22;16599;47.078;15.536;2023-03-01T04:33:14;0.40;99.90
29687;DHT22;16599;47.078;15.536;2023-03-01T04:35:41;0.40;99.90
29687;DHT22;16599;47.078;15.536;2023-03-01T04:38:08;0.40;99.90
29687;DHT22;16599;47.078;15.536;2023-03-01T04:40:35;0.40;99.90
29687;DHT22;16599;47.078;15.536;2023-03-01T04:43:03;0.40;99.90
29687;DHT22;16599;47.078;15.536;2023-03-01T04:45:31;0.40;99.90
29687;DHT22;16599;47.078;15.536;2023-03-01T04:47:58;0.30;99.90
29687;DHT22;16599;47.078;15.536;2023-03-01T04:50:24;0.10;99.90
29687;DHT22;16599;47.078;15.536;2023-03-01T04:52:52;0.20;99.90
29687;DHT22;16599;47.078;15.536;2023-03-01T04:55:18;0.30;99.90
29687;DHT22;16599;47.078;15.536;2023-03-01T04:57:45;0.30;99.90
29687;DHT22;16599;47.078;15.536;2023-03-01T05:00:13;0.40;99.90
29687;DHT22;16599;47.078;15.536;2023-03-01T05:02:59;0.30;99.90
29687;DHT22;16599;47.078;15.536;2023-03-01T05:05:28;0.30;99.90
29687;DHT22;16599;47.078;15.536;2023-03-01T05:07:55;0.30;99.90
29687;DHT22;16599;47.078;15.536;2023-03-01T05:10:22;0.40;99.90
29687;DHT22;16599;47.078;15.536;2023-03-01T05:12:49;0.30;99.90
29687;DHT22;16599;47.078;15.536;2023-03-01T05:15:16;0.20;99.90
29687;DHT22;16599;47.078;15.536;2023-03-01T05:17:42;0.20;99.90
29687;DHT22;16599;47.078;15.536;2023-03-01T05:20:10;0.30;99.90
29687;DHT22;16599;47.078;15.536;2023-03-01T05:22:37;0.30;99.90
29687;DHT22;16599;47.078;15.536;2023-03-01T05:25:03;0.30;99.90
29687;DHT22;16599;47.078;15.536;2023-03-01T05:27:30;0.20;99.90
29687;DHT22;16599;47.078;15.536;2023-03-01T05:29:57;0.30;99.90
29687;DHT22;16599;47.078;15.536;2023-03-01T05:32:24;0.40;99.90
29687;DHT22;16599;47.078;15.536;2023-03-01T05:34:50;0.40;99.90
29687;DHT22;16599;47.078;15.536;2023-03-01T05:37:18;0.40;99.90
29687;DHT22;16599;47.078;15.536;2023-03-01T05:39:45;0.40;99.90
29687;DHT22;16599;47.078;15.536;2023-03-01T05:42:14;0.20;99.90
29687;DHT22;16599;47.078;15.536;2023-03-01T05:44:41;0.10;99.90
29687;DHT22;16599;47.078;15.536;2023-03-01T05:47:08;0.20;99.90
29687;DHT22;16599;47.078;15.536;2023-03-01T05:49:34;0.30;99.90
29687;DHT22;16599;47.078;15.536;2023-03-01T05:52:04;0.40;99.90
29687;DHT22;16599;47.078;15.536;2023-03-01T05:54:30;0.50;99.90
29687;DHT22;16599;47.078;15.536;2023-03-01T05:56:57;0.60;99.90
29687;DHT22;16599;47.078;15.536;2023-03-01T05:59:24;0.60;99.90
29687;DHT22;16599;47.078;15.536;2023-03-01T06:01:50;0.60;99.90
29687;DHT22;16599;47.078;15.536;2023-03-01T06:04:17;0.60;99.90
29687;DHT22;16599;47.078;15.536;2023-03-01T06:06:44;0.60;99.90
29687;DHT22;16599;47.078;15.536;2023-03-01T06:09:10;0.50;99.90
29687;DHT22;16599;47.078;15.536;2023-03-01T06:11:37;0.50;99.90
29687;DHT22;16599;47.078;15.536;2023-03-01T06:14:05;0.30;99.90
29687;DHT22;16599;47.078;15.536;2023-03-01T06:16:32;0.20;99.90
29687;DHT22;16599;47.078;15.536;2023-03-01T06:18:59;0.30;99.90
29687;DHT22;16599;47.078;15.536;2023-03-01T06:21:26;0.40;99.90
29687;DHT22;16599;47.078;15.536;2023-03-01T06:23:53;0.40;99.90
29687;DHT22;16599;47.078;15.536;2023-03-01T06:26:19;0.50;99.90
29687;DHT22;16599;47.078;15.536;2023-03-01T06:28:46;0.50;99.90
29687;DHT22;16599;47.078;15.536;2023-03-01T06:31:13;0.40;99.90
29687;DHT22;16599;47.078;15.536;2023-03-01T06:33:39;0.40;99.90
29687;DHT22;16599;47.078;15.536;2023-03-01T06:36:06;0.40;99.90
29687;DHT22;16599;47.078;15.536;2023-03-01T06:38:34;0.50;99.90
29687;DHT22;16599;47.078;15.536;2023-03-01T06:41:01;0.50;99.90
29687;DHT22;16599;47.078;15.536;2023-03-01T06:43:28;0.40;99.90
29687;DHT22;16599;47.078;15.536;2023-03-01T06:45:55;0.40;99.90
29687;DHT22;16599;47.078;15.536;2023-03-01T06:48:22;0.40;99.90
29687;DHT22;16599;47.078;15.536;2023-03-01T06:50:48;0.50;99.90
29687;DHT22;16599;47.078;15.536;2023-03-01T06:53:15;0.60;99.90
29687;DHT22;16599;47.078;15.536;2023-03-01T06:55:42;0.60;99.90
29687;DHT22;16599;47.078;15.536;2023-03-01T06:58:09;0.50;99.90
29687;DHT22;16599;47.078;15.536;2023-03-01T07:00:35;0.50;99.90
29687;DHT22;16599;47.078;15.536;2023-03-01T07:03:02;0.60;99.90
29687;DHT22;16599;47.078;15.536;2023-03-01T07:05:30;0.60;99.90
29687;DHT22;16599;47.078;15.536;2023-03-01T07:07:56;0.60;99.90
29687;DHT22;16599;47.078;15.536;2023-03-01T07:10:23;0.70;99.90
29687;DHT22;16599;47.078;15.536;2023-03-01T07:12:50;0.70;99.90
29687;DHT22;16599;47.078;15.536;2023-03-01T07:15:17;0.60;99.90
29687;DHT22;16599;47.078;15.536;2023-03-01T07:17:43;0.60;99.90
29687;DHT22;16599;47.078;15.536;2023-03-01T07:20:11;0.60;99.90
29687;DHT22;16599;47.078;15.536;2023-03-01T07:22:39;0.70;99.90
29687;DHT22;16599;47.078;15.536;2023-03-01T07:25:06;0.80;99.90
29687;DHT22;16599;47.078;15.536;2023-03-01T07:27:33;0.90;99.90
29687;DHT22;16599;47.078;15.536;2023-03-01T07:29:59;0.90;99.90
29687;DHT22;16599;47.078;15.536;2023-03-01T07:32:26;1.00;99.90
29687;DHT22;16599;47.078;15.536;2023-03-01T07:34:53;1.00;99.90
29687;DHT22;16599;47.078;15.536;2023-03-01T07:37:19;1.00;99.90
29687;DHT22;16599;47.078;15.536;2023-03-01T07:39:46;0.90;99.90
29687;DHT22;16599;47.078;15.536;2023-03-01T07:42:13;0.90;99.70
29687;DHT22;16599;47.078;15.536;2023-03-01T07:44:39;1.00;98.50
29687;DHT22;16599;47.078;15.536;2023-03-01T07:47:06;1.00;98.10
29687;DHT22;16599;47.078;15.536;2023-03-01T07:49:33;1.00;98.20
29687;DHT22;16599;47.078;15.536;2023-03-01T07:52:00;1.00;98.10
29687;DHT22;16599;47.078;15.536;2023-03-01T07:54:31;1.10;98.90
29687;DHT22;16599;47.078;15.536;2023-03-01T07:57:06;1.30;99.90
29687;DHT22;16599;47.078;15.536;2023-03-01T07:59:33;1.30;99.90
29687;DHT22;16599;47.078;15.536;2023-03-01T08:02:00;1.40;99.90
29687;DHT22;16599;47.078;15.536;2023-03-01T08:04:27;1.40;99.90
29687;DHT22;16599;47.078;15.536;2023-03-01T08:06:54;1.40;99.90
29687;DHT22;16599;47.078;15.536;2023-03-01T08:09:21;1.50;99.80
29687;DHT22;16599;47.078;15.536;2023-03-01T08:11:47;1.40;99.10
29687;DHT22;16599;47.078;15.536;2023-03-01T08:14:14;1.30;98.50
29687;DHT22;16599;47.078;15.536;2023-03-01T08:16:41;1.40;98.60
29687;DHT22;16599;47.078;15.536;2023-03-01T08:19:09;1.40;97.90
29687;DHT22;16599;47.078;15.536;2023-03-01T08:21:35;1.30;98.30
29687;DHT22;16599;47.078;15.536;2023-03-01T08:24:03;1.30;99.50
29687;DHT22;16599;47.078;15.536;2023-03-01T08:26:30;1.20;99.60
29687;DHT22;16599;47.078;15.536;2023-03-01T08:28:57;1.10;99.90
29687;DHT22;16599;47.078;15.536;2023-03-01T08:31:25;1.00;99.80
29687;DHT22;16599;47.078;15.536;2023-03-01T08:33:53;1.20;99.90
29687;DHT22;16599;47.078;15.536;2023-03-01T08:36:24;1.20;99.90
29687;DHT22;16599;47.078;15.536;2023-03-01T08:38:51;1.20;99.90
29687;DHT22;16599;47.078;15.536;2023-03-01T08:41:17;1.10;99.90
29687;DHT22;16599;47.078;15.536;2023-03-01T08:43:44;1.10;99.90
29687;DHT22;16599;47.078;15.536;2023-03-01T08:46:11;1.10;99.90
29687;DHT22;16599;47.078;15.536;2023-03-01T08:48:38;1.10;99.90
29687;DHT22;16599;47.078;15.536;2023-03-01T08:51:11;1.10;99.90
29687;DHT22;16599;47.078;15.536;2023-03-01T08:53:39;1.10;99.90
29687;DHT22;16599;47.078;15.536;2023-03-01T08:56:06;1.10;99.90
29687;DHT22;16599;47.078;15.536;2023-03-01T08:58:33;1.20;99.90
29687;DHT22;16599;47.078;15.536;2023-03-01T09:01:00;1.30;99.90
29687;DHT22;16599;47.078;15.536;2023-03-01T09:03:27;1.40;99.90
29687;DHT22;16599;47.078;15.536;2023-03-01T09:05:53;1.40;99.90
29687;DHT22;16599;47.078;15.536;2023-03-01T09:08:26;1.30;99.90
29687;DHT22;16599;47.078;15.536;2023-03-01T09:10:53;1.40;99.90
29687;DHT22;16599;47.078;15.536;2023-03-01T09:13:19;1.50;99.90
29687;DHT22;16599;47.078;15.536;2023-03-01T09:15:46;1.50;99.90
29687;DHT22;16599;47.078;15.536;2023-03-01T09:18:13;1.40;99.90
29687;DHT22;16599;47.078;15.536;2023-03-01T09:20:39;1.30;99.90
29687;DHT22;16599;47.078;15.536;2023-03-01T09:23:06;1.40;99.90
29687;DHT22;16599;47.078;15.536;2023-03-01T09:25:33;1.50;99.90
29687;DHT22;16599;47.078;15.536;2023-03-01T09:28:00;1.50;99.90
29687;DHT22;16599;47.078;15.536;2023-03-01T09:30:27;1.60;99.90
29687;DHT22;16599;47.078;15.536;2023-03-01T09:32:55;1.60;99.90
29687;DHT22;16599;47.078;15.536;2023-03-01T09:35:22;1.80;99.90
29687;DHT22;16599;47.078;15.536;2023-03-01T09:37:50;1.80;99.90
29687;DHT22;16599;47.078;15.536;2023-03-01T09:40:20;2.10;99.70
29687;DHT22;16599;47.078;15.536;2023-03-01T09:45:24;2.30;98.70
29687;DHT22;16599;47.078;15.536;2023-03-01T09:47:51;2.40;98.40
29687;DHT22;16599;47.078;15.536;2023-03-01T09:50:19;2.30;97.80
29687;DHT22;16599;47.078;15.536;2023-03-01T09:55:42;2.30;97.30
29687;DHT22;16599;47.078;15.536;2023-03-01T09:58:18;2.10;97.70
29687;DHT22;16599;47.078;15.536;2023-03-01T10:00:50;1.80;98.10
29687;DHT22;16599;47.078;15.536;2023-03-01T10:03:22;2.10;98.70
29687;DHT22;16599;47.078;15.536;2023-03-01T10:08:34;2.30;98.70
29687;DHT22;16599;47.078;15.536;2023-03-01T10:11:03;2.30;98.30
29687;DHT22;16599;47.078;15.536;2023-03-01T10:13:46;2.00;98.70
29687;DHT22;16599;47.078;15.536;2023-03-01T10:16:21;1.90;99.30
29687;DHT22;16599;47.078;15.536;2023-03-01T10:18:51;1.90;99.60
29687;DHT22;16599;47.078;15.536;2023-03-01T10:21:19;2.10;99.60
29687;DHT22;16599;47.078;15.536;2023-03-01T10:23:47;2.20;99.70
29687;DHT22;16599;47.078;15.536;2023-03-01T10:29:05;2.10;99.90
29687;DHT22;16599;47.078;15.536;2023-03-01T10:31:42;2.30;99.90
29687;DHT22;16599;47.078;15.536;2023-03-01T10:34:10;2.40;99.90
29687;DHT22;16599;47.078;15.536;2023-03-01T10:36:37;2.40;99.90
29687;DHT22;16599;47.078;15.536;2023-03-01T10:39:10;2.40;99.90
29687;DHT22;16599;47.078;15.536;2023-03-01T10:41:40;2.20;99.90
29687;DHT22;16599;47.078;15.536;2023-03-01T10:44:34;2.30;99.90
29687;DHT22;16599;47.078;15.536;2023-03-01T10:47:01;2.10;99.90
29687;DHT22;16599;47.078;15.536;2023-03-01T10:49:28;2.10;99.90
29687;DHT22;16599;47.078;15.536;2023-03-01T10:51:54;2.10;99.90
29687;DHT22;16599;47.078;15.536;2023-03-01T10:54:33;2.30;99.90
29687;DHT22;16599;47.078;15.536;2023-03-01T10:57:01;2.20;99.90
29687;DHT22;16599;47.078;15.536;2023-03-01T10:59:29;2.10;99.90
29687;DHT22;16599;47.078;15.536;2023-03-01T11:07:53;2.00;99.90
29687;DHT22;16599;47.078;15.536;2023-03-01T11:10:24;1.80;99.90
29687;DHT22;16599;47.078;15.536;2023-03-01T11:12:52;1.70;99.90
29687;DHT22;16599;47.078;15.536;2023-03-01T11:15:24;1.70;99.90
29687;DHT22;16599;47.078;15.536;2023-03-01T11:17:51;1.60;99.90
29687;DHT22;16599;47.078;15.536;2023-03-01T11:20:35;1.50;99.90
29687;DHT22;16599;47.078;15.536;2023-03-01T11:23:04;1.50;99.90
29687;DHT22;16599;47.078;15.536;2023-03-01T11:25:35;1.70;99.90
29687;DHT22;16599;47.078;15.536;2023-03-01T11:28:03;1.80;99.90
29687;DHT22;16599;47.078;15.536;2023-03-01T11:30:32;2.10;99.90
29687;DHT22;16599;47.078;15.536;2023-03-01T11:36:21;1.90;99.90
29687;DHT22;16599;47.078;15.536;2023-03-01T11:38:36;1.80;99.90
29687;DHT22;16599;47.078;15.536;2023-03-01T11:41:13;1.90;99.90
29687;DHT22;16599;47.078;15.536;2023-03-01T11:48:42;2.30;99.90
29687;DHT22;16599;47.078;15.536;2023-03-01T11:51:20;2.20;99.90
29687;DHT22;16599;47.078;15.536;2023-03-01T11:53:51;2.20;99.90
29687;DHT22;16599;47.078;15.536;2023-03-01T11:56:30;2.40;99.90
29687;DHT22;16599;47.078;15.536;2023-03-01T12:01:38;2.50;99.90
29687;DHT22;16599;47.078;15.536;2023-03-01T12:07:00;2.60;99.90
29687;DHT22;16599;47.078;15.536;2023-03-01T12:12:04;2.60;99.90
29687;DHT22;16599;47.078;15.536;2023-03-01T12:35:54;3.10;99.90
29687;DHT22;16599;47.078;15.536;2023-03-01T12:38:25;3.00;99.90
29687;DHT22;16599;47.078;15.536;2023-03-01T12:43:41;3.10;99.90
29687;DHT22;16599;47.078;15.536;2023-03-01T12:46:15;3.20;99.90
29687;DHT22;16599;47.078;15.536;2023-03-01T12:51:15;3.30;99.90
29687;DHT22;16599;47.078;15.536;2023-03-01T12:53:47;3.20;99.90
29687;DHT22;16599;47.078;15.536;2023-03-01T12:56:19;3.30;99.90
29687;DHT22;16599;47.078;15.536;2023-03-01T13:04:36;3.40;99.80
29687;DHT22;16599;47.078;15.536;2023-03-01T13:07:13;3.70;99.90
29687;DHT22;16599;47.078;15.536;2023-03-01T13:15:16;3.80;99.10
29687;DHT22;16599;47.078;15.536;2023-03-01T13:17:51;3.90;99.70
29687;DHT22;16599;47.078;15.536;2023-03-01T13:20:20;4.00;99.90
29687;DHT22;16599;47.078;15.536;2023-03-01T13:22:47;4.00;99.20
29687;DHT22;16599;47.078;15.536;2023-03-01T13:25:20;4.00;99.40
29687;DHT22;16599;47.078;15.536;2023-03-01T13:27:51;4.10;99.30
29687;DHT22;16599;47.078;15.536;2023-03-01T13:30:38;3.90;98.80
29687;DHT22;16599;47.078;15.536;2023-03-01T13:35:44;4.10;99.00
29687;DHT22;16599;47.078;15.536;2023-03-01T13:41:14;4.10;98.80
29687;DHT22;16599;47.078;15.536;2023-03-01T13:43:41;4.20;98.70
29687;DHT22;16599;47.078;15.536;2023-03-01T13:46:19;4.40;98.90
29687;DHT22;16599;47.078;15.536;2023-03-01T13:48:48;4.50;98.60
29687;DHT22;16599;47.078;15.536;2023-03-01T13:51:16;4.60;98.60
29687;DHT22;16599;47.078;15.536;2023-03-01T13:53:46;4.70;98.40
29687;DHT22;16599;47.078;15.536;2023-03-01T13:56:17;4.70;98.50
29687;DHT22;16599;47.078;15.536;2023-03-01T13:58:53;4.70;98.40
29687;DHT22;16599;47.078;15.536;2023-03-01T14:01:21;4.70;97.80
29687;DHT22;16599;47.078;15.536;2023-03-01T14:03:48;4.70;97.60
29687;DHT22;16599;47.078;15.536;2023-03-01T14:06:16;4.70;97.60
29687;DHT22;16599;47.078;15.536;2023-03-01T14:08:48;4.70;97.70
29687;DHT22;16599;47.078;15.536;2023-03-01T14:13:54;4.50;97.70
29687;DHT22;16599;47.078;15.536;2023-03-01T14:21:43;4.70;98.00
29687;DHT22;16599;47.078;15.536;2023-03-01T14:24:20;4.80;98.00
29687;DHT22;16599;47.078;15.536;2023-03-01T14:26:48;4.90;98.30
29687;DHT22;16599;47.078;15.536;2023-03-01T14:29:33;4.80;98.10
29687;DHT22;16599;47.078;15.536;2023-03-01T14:34:47;4.50;98.60
29687;DHT22;16599;47.078;15.536;2023-03-01T14:37:21;4.60;99.80
29687;DHT22;16599;47.078;15.536;2023-03-01T14:39:49;4.50;99.60
29687;DHT22;16599;47.078;15.536;2023-03-01T14:42:16;4.50;99.30
29687;DHT22;16599;47.078;15.536;2023-03-01T14:44:43;4.60;99.90
29687;DHT22;16599;47.078;15.536;2023-03-01T14:47:15;4.70;99.90
29687;DHT22;16599;47.078;15.536;2023-03-01T14:49:42;4.70;99.90
29687;DHT22;16599;47.078;15.536;2023-03-01T14:52:45;4.50;99.90
29687;DHT22;16599;47.078;15.536;2023-03-01T14:55:10;4.50;99.90
29687;DHT22;16599;47.078;15.536;2023-03-01T14:57:43;4.50;99.90
29687;DHT22;16599;47.078;15.536;2023-03-01T15:00:10;4.50;99.90
29687;DHT22;16599;47.078;15.536;2023-03-01T15:02:42;4.50;99.90
29687;DHT22;16599;47.078;15.536;2023-03-01T15:05:09;4.40;99.90
29687;DHT22;16599;47.078;15.536;2023-03-01T15:07:38;4.30;99.90
29687;DHT22;16599;47.078;15.536;2023-03-01T15:10:06;4.40;99.90
29687;DHT22;16599;47.078;15.536;2023-03-01T15:12:38;4.40;99.90
29687;DHT22;16599;47.078;15.536;2023-03-01T15:17:54;4.50;99.90
29687;DHT22;16599;47.078;15.536;2023-03-01T15:20:24;4.50;99.90
29687;DHT22;16599;47.078;15.536;2023-03-01T15:22:55;4.50;99.90
29687;DHT22;16599;47.078;15.536;2023-03-01T15:25:23;4.50;99.90
29687;DHT22;16599;47.078;15.536;2023-03-01T15:27:51;4.50;99.90
29687;DHT22;16599;47.078;15.536;2023-03-01T15:30:25;4.50;99.90
29687;DHT22;16599;47.078;15.536;2023-03-01T15:35:47;4.60;99.90
29687;DHT22;16599;47.078;15.536;2023-03-01T15:38:49;4.60;99.90
29687;DHT22;16599;47.078;15.536;2023-03-01T15:43:49;4.20;99.90
29687;DHT22;16599;47.078;15.536;2023-03-01T15:46:18;4.20;99.90
29687;DHT22;16599;47.078;15.536;2023-03-01T15:48:46;4.20;99.90
29687;DHT22;16599;47.078;15.536;2023-03-01T15:51:13;4.20;99.90
29687;DHT22;16599;47.078;15.536;2023-03-01T15:53:42;4.30;99.90
29687;DHT22;16599;47.078;15.536;2023-03-01T15:56:20;4.30;99.90
29687;DHT22;16599;47.078;15.536;2023-03-01T15:58:46;4.30;99.90
29687;DHT22;16599;47.078;15.536;2023-03-01T16:01:14;4.30;99.90
29687;DHT22;16599;47.078;15.536;2023-03-01T16:03:42;4.30;99.90
29687;DHT22;16599;47.078;15.536;2023-03-01T16:06:09;4.20;99.90
29687;DHT22;16599;47.078;15.536;2023-03-01T16:08:37;4.20;99.90
29687;DHT22;16599;47.078;15.536;2023-03-01T16:11:04;4.10;99.90
29687;DHT22;16599;47.078;15.536;2023-03-01T16:13:32;4.00;99.90
29687;DHT22;16599;47.078;15.536;2023-03-01T16:15:59;4.00;99.90
29687;DHT22;16599;47.078;15.536;2023-03-01T16:18:25;4.00;99.90
29687;DHT22;16599;47.078;15.536;2023-03-01T16:20:52;4.00;99.90
29687;DHT22;16599;47.078;15.536;2023-03-01T16:23:20;4.00;99.90
29687;DHT22;16599;47.078;15.536;2023-03-01T16:25:51;4.00;99.90
29687;DHT22;16599;47.078;15.536;2023-03-01T16:28:17;4.00;99.90
29687;DHT22;16599;47.078;15.536;2023-03-01T16:30:47;4.00;99.90
29687;DHT22;16599;47.078;15.536;2023-03-01T16:33:17;4.00;99.90
29687;DHT22;16599;47.078;15.536;2023-03-01T16:35:59;3.90;99.90
29687;DHT22;16599;47.078;15.536;2023-03-01T16:38:26;3.90;99.90
29687;DHT22;16599;47.078;15.536;2023-03-01T16:40:53;3.90;99.90
29687;DHT22;16599;47.078;15.536;2023-03-01T16:43:20;3.90;99.90
29687;DHT22;16599;47.078;15.536;2023-03-01T16:45:46;3.90;99.90
29687;DHT22;16599;47.078;15.536;2023-03-01T16:48:14;3.80;99.90
29687;DHT22;16599;47.078;15.536;2023-03-01T16:50:40;3.80;99.90
29687;DHT22;16599;47.078;15.536;2023-03-01T16:53:07;3.80;99.90
29687;DHT22;16599;47.078;15.536;2023-03-01T16:55:34;3.80;99.90
29687;DHT22;16599;47.078;15.536;2023-03-01T16:58:01;3.80;99.90
29687;DHT22;16599;47.078;15.536;2023-03-01T17:00:28;3.80;99.90
29687;DHT22;16599;47.078;15.536;2023-03-01T17:02:55;3.70;99.90
29687;DHT22;16599;47.078;15.536;2023-03-01T17:05:22;3.50;99.90
29687;DHT22;16599;47.078;15.536;2023-03-01T17:07:50;3.60;99.90
29687;DHT22;16599;47.078;15.536;2023-03-01T17:10:17;3.50;99.90
29687;DHT22;16599;47.078;15.536;2023-03-01T17:12:44;3.50;99.90
29687;DHT22;16599;47.078;15.536;2023-03-01T17:15:10;3.40;99.90
29687;DHT22;16599;47.078;15.536;2023-03-01T17:17:38;3.30;99.90
29687;DHT22;16599;47.078;15.536;2023-03-01T17:20:05;3.30;99.90
29687;DHT22;16599;47.078;15.536;2023-03-01T17:22:32;3.20;99.90